NFFN/NAN METAR and TAF weather

Enter ICAO airport designator
Station Type Date Time Source
NFFN METAR 2019/04/26 04:00 UTC NOAA

NFFN 260400Z 14008KT 100V180 9999 SCT025TCU SCT048 31/25 Q1005 TEMPO 0400/0500 3000 TSRA


Station Type Date Time Source
NFFN Decoded METAR 2019/04/26 04:00 UTC NOAA

Nandi, Fiji (NFFN) 17-45S 177-27E 18M
Apr 26, 2019 - 12:00 AM EDT / 2019.04.26 0400 UTC
Wind: from the SE (140 degrees) at 9 MPH (8 KT) (direction variable):0
Visibility: greater than 7 mile(s):0
Sky conditions: partly cloudy
Weather: Towering cumulus clouds observed
Temperature: 87 F (31 C)
Heat index: 97.5 F (36.4 C):1
Dew Point: 77 F (25 C)
Relative Humidity: 70%
Pressure (altimeter): 29.68 in. Hg (1005 hPa)
ob: NFFN 260400Z 14008KT 100V180 9999 SCT025TCU SCT048 31/25 Q1005 TEMPO 0400/0500 3000 TSRA
cycle: 4

Station Type Date Time Source
NFFN TAF 2019/04/26 00:00 UTC NOAA

TAF NFFN 252319Z 2600/2624 12005KT 9999 FEW028 SCT050
BECMG 2601/2602 28008KT PROB30
TEMPO 2603/2606 3000 TSRA BKN015 FEW018CB
BECMG 2604/2606 10005KT

Example: see airport list